Time;durP1;ratioP1;P1;durP2;ratioP2;P2;SDS_P1;SDS_P2;PMS_P1;PMS_P2;Temp;Humidity;BMP_temperature;BMP_pressure;BME280_temperature;BME280_humidity;BME280_pressure;Samples;Min_cycle;Max_cycle;Signal;HPM_P1;HPM_P2
2022/07/30 00:01:02;;;;;;;3.08;2.70;;;17.00;99.90;;;;;;5030637;28;20052;-77
2022/07/30 00:03:28;;;;;;;5.43;3.33;;;17.00;99.90;;;;;;5030197;28;20037;-77
2022/07/30 00:05:54;;;;;;;3.88;2.83;;;17.00;99.90;;;;;;5029919;28;20041;-78
2022/07/30 00:08:21;;;;;;;3.65;2.60;;;16.90;99.90;;;;;;5030180;28;20112;-77
2022/07/30 00:10:48;;;;;;;5.38;3.33;;;16.90;99.90;;;;;;5030453;28;20124;-77
2022/07/30 00:13:13;;;;;;;5.05;3.78;;;16.80;99.90;;;;;;5030514;28;20526;-77
2022/07/30 00:15:39;;;;;;;3.13;2.67;;;16.80;99.90;;;;;;5029515;28;20041;-77
2022/07/30 00:18:05;;;;;;;3.50;2.63;;;16.80;99.90;;;;;;5063189;28;20049;-77
2022/07/30 00:20:30;;;;;;;4.35;3.45;;;16.70;99.90;;;;;;5030246;28;20511;-77
2022/07/30 00:22:56;;;;;;;5.20;3.83;;;16.60;99.90;;;;;;5030278;28;20518;-77
2022/07/30 00:25:22;;;;;;;4.13;3.67;;;16.50;99.90;;;;;;5029224;28;20037;-76
2022/07/30 00:27:47;;;;;;;4.97;3.95;;;16.50;99.90;;;;;;5062196;28;20049;-77
2022/07/30 00:30:13;;;;;;;5.60;3.83;;;16.40;99.90;;;;;;5063502;28;20462;-77
2022/07/30 00:32:39;;;;;;;4.93;3.83;;;16.40;99.90;;;;;;5013392;28;20045;-77
2022/07/30 00:35:05;;;;;;;4.18;3.40;;;16.20;99.90;;;;;;5042546;28;20045;-76
2022/07/30 00:37:31;;;;;;;4.60;4.05;;;16.10;99.90;;;;;;5046767;28;20167;-76
2022/07/30 00:39:56;;;;;;;5.22;3.55;;;16.00;99.90;;;;;;5063209;28;20518;-77
2022/07/30 00:42:24;;;;;;;4.10;3.67;;;16.10;99.90;;;;;;5029788;28;20515;-77
2022/07/30 00:44:53;;;;;;;5.50;4.22;;;16.10;99.90;;;;;;5029233;28;20057;-77
2022/07/30 00:47:19;;;;;;;5.80;4.05;;;16.10;99.90;;;;;;5031208;28;20052;-77
2022/07/30 00:49:46;;;;;;;4.60;4.13;;;16.00;99.90;;;;;;5029852;28;20053;-76
2022/07/30 00:52:12;;;;;;;5.22;3.90;;;15.90;99.90;;;;;;5030147;28;20407;-77
2022/07/30 00:54:37;;;;;;;7.38;4.38;;;15.70;99.90;;;;;;5029154;28;20453;-77
2022/07/30 00:57:03;;;;;;;7.60;4.05;;;15.60;99.90;;;;;;5029491;28;20037;-76
2022/07/30 00:59:30;;;;;;;6.40;4.10;;;15.60;99.90;;;;;;5063060;28;20484;-77
2022/07/30 01:01:56;;;;;;;4.80;4.22;;;15.50;99.90;;;;;;5029589;28;20045;-76
2022/07/30 01:04:21;;;;;;;5.75;4.22;;;15.50;99.90;;;;;;5029426;28;20037;-76
2022/07/30 01:06:47;;;;;;;5.72;4.30;;;15.40;99.90;;;;;;5029451;28;20045;-77
2022/07/30 01:09:12;;;;;;;5.00;3.80;;;15.50;99.90;;;;;;5029695;28;20060;-76
2022/07/30 01:11:41;;;;;;;5.80;3.25;;;15.60;99.90;;;;;;5029595;28;20104;-76
2022/07/30 01:14:08;;;;;;;4.38;3.33;;;15.60;99.90;;;;;;5029287;28;20426;-76
2022/07/30 01:16:38;;;;;;;4.97;3.83;;;15.60;99.90;;;;;;5029887;28;20518;-76
2022/07/30 01:22:27;;;;;;;4.90;3.70;;;15.40;99.90;;;;;;4934446;29;20047;-76
2022/07/30 01:25:10;;;;;;;4.57;3.70;;;15.30;99.90;;;;;;5019391;28;20046;-76
2022/07/30 01:27:58;;;;;;;5.72;3.50;;;15.20;99.90;;;;;;5029412;28;20515;-77
2022/07/30 01:30:27;;;;;;;5.32;3.58;;;15.10;99.90;;;;;;5013358;28;20046;-77
2022/07/30 01:32:55;;;;;;;4.93;3.63;;;15.10;99.90;;;;;;5029396;28;20045;-77
2022/07/30 01:35:24;;;;;;;4.55;4.05;;;15.10;99.90;;;;;;5028848;28;20041;-77
2022/07/30 01:37:51;;;;;;;5.40;4.35;;;15.20;99.90;;;;;;5029056;28;20038;-76
2022/07/30 01:40:18;;;;;;;6.53;3.80;;;15.20;99.90;;;;;;5032166;28;20072;-77
2022/07/30 01:42:47;;;;;;;5.00;4.20;;;15.20;99.90;;;;;;5033066;28;20084;-76
2022/07/30 01:45:14;;;;;;;6.70;4.20;;;15.10;99.90;;;;;;5032377;28;20049;-77
2022/07/30 01:47:41;;;;;;;5.70;4.05;;;15.10;99.90;;;;;;5033127;28;20450;-77
2022/07/30 01:50:12;;;;;;;6.15;4.53;;;15.20;99.90;;;;;;5033042;28;20049;-77
2022/07/30 01:52:42;;;;;;;5.97;4.50;;;15.20;99.90;;;;;;5032649;28;20061;-77
2022/07/30 01:55:11;;;;;;;7.60;4.63;;;15.20;99.90;;;;;;5032050;28;20117;-76
2022/07/30 01:57:38;;;;;;;6.40;4.70;;;15.30;99.90;;;;;;5032876;28;20046;-76
2022/07/30 02:00:05;;;;;;;6.38;3.97;;;15.30;99.90;;;;;;5032523;28;20072;-76
2022/07/30 02:02:33;;;;;;;7.07;4.28;;;15.20;99.90;;;;;;5032800;28;20038;-77
2022/07/30 02:04:59;;;;;;;4.82;3.40;;;15.10;99.90;;;;;;5031815;28;20495;-77
2022/07/30 02:07:54;;;;;;;5.68;4.65;;;15.10;99.90;;;;;;5016032;28;20106;-75
2022/07/30 02:10:29;;;;;;;5.40;4.60;;;15.00;99.90;;;;;;5031671;28;20045;-76
2022/07/30 02:12:59;;;;;;;6.00;4.88;;;14.90;99.90;;;;;;5032746;28;20130;-76
2022/07/30 02:15:30;;;;;;;8.32;4.82;;;14.80;99.90;;;;;;5031688;28;20052;-77
2022/07/30 02:18:04;;;;;;;5.63;5.03;;;14.70;99.90;;;;;;5032397;28;20499;-77
2022/07/30 02:20:32;;;;;;;7.75;4.90;;;14.60;99.90;;;;;;5032340;28;20079;-77
2022/07/30 02:23:03;;;;;;;6.03;4.70;;;14.60;99.90;;;;;;5032561;28;20041;-77
2022/07/30 02:25:33;;;;;;;7.78;5.15;;;14.60;99.90;;;;;;5031524;28;20041;-77
2022/07/30 02:28:03;;;;;;;6.10;4.85;;;14.60;99.90;;;;;;5032130;28;20547;-76
2022/07/30 02:30:30;;;;;;;6.43;5.47;;;14.60;99.90;;;;;;5032125;28;20084;-77
2022/07/30 02:33:07;;;;;;;7.07;5.32;;;14.60;99.90;;;;;;5032260;28;20041;-77
2022/07/30 02:35:34;;;;;;;7.57;5.47;;;14.60;99.90;;;;;;5014888;28;20151;-77
2022/07/30 02:38:01;;;;;;;8.40;5.30;;;14.60;99.90;;;;;;5031943;28;20098;-77
2022/07/30 02:40:27;;;;;;;7.50;6.32;;;14.50;99.90;;;;;;5032004;28;20044;-77
2022/07/30 02:42:53;;;;;;;7.28;5.72;;;14.40;99.90;;;;;;5031881;28;20364;-77
2022/07/30 02:45:22;;;;;;;5.75;5.15;;;14.50;99.90;;;;;;5031258;28;20156;-77
2022/07/30 02:47:53;;;;;;;8.15;5.70;;;14.50;99.90;;;;;;5031563;28;20045;-76
2022/07/30 02:50:20;;;;;;;7.53;5.57;;;14.50;99.90;;;;;;5031364;28;20463;-77
2022/07/30 02:52:48;;;;;;;5.60;4.97;;;14.50;99.90;;;;;;5031378;28;20049;-77
2022/07/30 02:55:16;;;;;;;6.78;5.40;;;14.50;99.90;;;;;;5031251;28;20431;-76
2022/07/30 02:57:42;;;;;;;7.53;5.78;;;14.30;99.90;;;;;;5048211;28;20283;-77
2022/07/30 03:00:09;;;;;;;6.82;5.40;;;14.30;99.90;;;;;;5031466;28;20048;-76
2022/07/30 03:02:35;;;;;;;6.80;6.03;;;14.30;99.90;;;;;;5031540;28;20048;-78
2022/07/30 03:05:04;;;;;;;8.20;6.57;;;14.40;99.90;;;;;;5064029;28;20068;-77
2022/07/30 03:07:31;;;;;;;9.35;6.63;;;14.50;99.90;;;;;;5031723;28;20187;-77
2022/07/30 03:09:57;;;;;;;8.40;6.50;;;14.50;99.90;;;;;;5031358;28;20048;-77
2022/07/30 03:12:24;;;;;;;8.55;6.05;;;14.50;99.90;;;;;;5031128;28;20099;-77
2022/07/30 03:14:50;;;;;;;8.73;6.95;;;14.50;99.90;;;;;;5030670;28;20044;-77
2022/07/30 03:17:18;;;;;;;9.48;7.35;;;14.40;99.90;;;;;;5031107;28;20099;-77
2022/07/30 03:19:45;;;;;;;11.38;7.07;;;14.40;99.90;;;;;;5031567;28;20037;-77
2022/07/30 03:22:13;;;;;;;11.75;7.25;;;14.50;99.90;;;;;;5031358;28;20131;-77
2022/07/30 03:24:41;;;;;;;10.25;7.68;;;14.50;99.90;;;;;;5030564;28;20041;-77
2022/07/30 03:27:08;;;;;;;7.28;6.53;;;14.50;99.90;;;;;;5014495;28;20041;-76
2022/07/30 03:29:34;;;;;;;7.78;6.80;;;14.50;99.90;;;;;;5031217;28;20042;-77
2022/07/30 03:32:01;;;;;;;9.05;6.80;;;14.40;99.90;;;;;;5030835;28;20037;-77
2022/07/30 03:34:27;;;;;;;9.15;7.28;;;14.30;99.90;;;;;;5030400;28;20037;-77
2022/07/30 03:36:54;;;;;;;9.52;7.07;;;14.30;99.90;;;;;;5030935;28;20439;-77
2022/07/30 03:39:21;;;;;;;8.95;6.85;;;14.30;99.90;;;;;;5030827;28;20041;-77
2022/07/30 03:41:47;;;;;;;9.05;6.88;;;14.40;99.90;;;;;;5014363;28;20040;-77
2022/07/30 03:44:14;;;;;;;9.65;7.00;;;14.40;99.90;;;;;;5029992;28;20084;-77
2022/07/30 03:46:40;;;;;;;9.15;6.88;;;14.40;99.90;;;;;;5030679;28;20068;-76
2022/07/30 03:49:08;;;;;;;8.40;6.65;;;14.40;99.90;;;;;;5030866;28;20083;-77
2022/07/30 03:51:36;;;;;;;8.35;6.30;;;14.30;99.90;;;;;;5030579;28;20046;-77
2022/07/30 03:54:03;;;;;;;7.80;5.90;;;14.30;99.90;;;;;;5029260;28;20045;-76
2022/07/30 03:56:28;;;;;;;6.10;5.50;;;14.30;99.90;;;;;;5030793;28;20450;-77
2022/07/30 03:58:54;;;;;;;7.03;5.30;;;14.30;99.90;;;;;;5031028;28;20049;-77
2022/07/30 04:01:24;;;;;;;6.45;5.35;;;14.20;99.90;;;;;;5030647;28;20377;-77
2022/07/30 04:03:50;;;;;;;8.50;5.78;;;14.20;99.90;;;;;;5029852;28;20045;-77
2022/07/30 04:06:16;;;;;;;7.18;5.57;;;14.10;99.90;;;;;;5013953;28;20034;-77
2022/07/30 04:08:41;;;;;;;6.65;5.57;;;14.10;99.90;;;;;;5030484;28;20041;-78
2022/07/30 04:11:07;;;;;;;6.55;5.75;;;14.00;99.90;;;;;;5030256;28;20064;-77
2022/07/30 04:13:32;;;;;;;7.95;5.50;;;13.90;99.90;;;;;;5030145;28;20090;-76
2022/07/30 04:16:04;;;;;;;8.02;5.30;;;13.70;99.90;;;;;;5029521;28;20286;-77
2022/07/30 04:18:36;;;;;;;8.48;5.40;;;13.70;99.90;;;;;;5030302;28;20124;-77
2022/07/30 04:21:04;;;;;;;7.60;6.50;;;13.70;99.90;;;;;;5030135;28;20037;-77
2022/07/30 04:23:31;;;;;;;8.10;6.07;;;13.80;99.90;;;;;;5030146;28;20045;-77
2022/07/30 04:25:58;;;;;;;8.35;6.40;;;13.80;99.90;;;;;;5029437;28;20041;-77
2022/07/30 04:28:26;;;;;;;6.32;5.68;;;13.80;99.90;;;;;;5030054;28;20041;-78
2022/07/30 04:30:53;;;;;;;6.72;5.63;;;13.90;99.90;;;;;;5030248;28;20049;-78
2022/07/30 04:33:19;;;;;;;8.52;5.88;;;13.90;99.90;;;;;;5030202;28;20479;-77
2022/07/30 04:35:44;;;;;;;8.35;6.97;;;13.90;99.90;;;;;;5029391;28;20045;-77
2022/07/30 04:38:12;;;;;;;7.85;7.05;;;14.00;99.90;;;;;;5029818;28;20124;-78
2022/07/30 04:40:39;;;;;;;11.80;7.05;;;14.00;99.90;;;;;;5030024;28;20121;-78
2022/07/30 04:43:05;;;;;;;8.70;7.40;;;14.00;99.90;;;;;;5029997;28;20124;-77
2022/07/30 04:45:30;;;;;;;11.10;9.07;;;14.00;99.90;;;;;;5029197;28;20128;-77
2022/07/30 04:47:56;;;;;;;13.05;8.23;;;14.10;99.90;;;;;;5029713;28;20044;-77
2022/07/30 04:50:25;;;;;;;12.20;8.25;;;14.30;99.90;;;;;;5063460;28;20045;-77
2022/07/30 04:52:52;;;;;;;11.10;6.45;;;14.40;99.90;;;;;;5029527;28;20045;-77
2022/07/30 04:55:19;;;;;;;9.10;7.10;;;14.50;99.90;;;;;;5062726;28;20356;-77
2022/07/30 04:57:47;;;;;;;12.43;7.60;;;14.60;99.90;;;;;;5062904;28;20129;-77
2022/07/30 05:00:13;;;;;;;11.85;7.55;;;14.70;99.90;;;;;;5013343;28;20569;-77
2022/07/30 05:02:39;;;;;;;10.65;7.75;;;14.70;99.90;;;;;;5029977;28;20041;-77
2022/07/30 05:05:07;;;;;;;10.02;8.15;;;14.80;99.90;;;;;;5029156;28;20426;-77
2022/07/30 05:07:33;;;;;;;12.30;8.57;;;14.80;99.90;;;;;;5029585;28;20049;-77
2022/07/30 05:09:59;;;;;;;12.50;8.35;;;14.80;99.90;;;;;;5029870;28;20041;-77
2022/07/30 05:12:32;;;;;;;9.57;7.90;;;14.90;99.90;;;;;;5029551;28;20120;-77
2022/07/30 05:14:57;;;;;;;9.40;7.38;;;15.10;99.90;;;;;;5031608;28;20054;-77
2022/07/30 05:17:23;;;;;;;13.30;9.50;;;15.20;99.90;;;;;;5066532;28;20428;-77
2022/07/30 05:19:48;;;;;;;9.23;8.20;;;15.30;99.90;;;;;;5033429;28;20511;-77
2022/07/30 05:22:14;;;;;;;10.23;9.13;;;15.40;99.90;;;;;;5033820;28;20041;-78
2022/07/30 05:24:39;;;;;;;14.35;10.02;;;15.40;99.90;;;;;;5032930;28;20511;-78
2022/07/30 05:27:05;;;;;;;11.85;9.98;;;15.50;99.90;;;;;;5033290;28;20037;-77
2022/07/30 05:29:31;;;;;;;12.05;10.70;;;15.60;99.90;;;;;;5033252;28;20047;-77
2022/07/30 05:31:56;;;;;;;13.43;10.25;;;15.80;99.90;;;;;;5033362;28;20116;-77
2022/07/30 05:34:22;;;;;;;11.82;10.20;;;15.90;99.90;;;;;;5032634;28;20091;-77
2022/07/30 05:36:47;;;;;;;14.18;11.45;;;16.00;99.90;;;;;;5033080;28;20030;-77
2022/07/30 05:39:15;;;;;;;11.07;9.25;;;16.20;99.90;;;;;;5032992;28;20042;-77
2022/07/30 05:41:40;;;;;;;13.38;9.73;;;16.40;99.90;;;;;;5033402;28;20071;-77
2022/07/30 05:44:06;;;;;;;11.50;10.23;;;16.40;99.90;;;;;;5065407;28;20116;-77
2022/07/30 05:46:31;;;;;;;12.50;10.57;;;16.50;99.90;;;;;;5032749;28;20510;-77
2022/07/30 05:48:57;;;;;;;9.95;8.77;;;16.50;99.90;;;;;;5032190;28;20380;-77
2022/07/30 05:51:23;;;;;;;11.65;9.85;;;16.70;99.90;;;;;;5031298;28;20289;-77
2022/07/30 05:53:49;;;;;;;11.18;10.10;;;16.70;99.90;;;;;;5030094;28;20329;-77
2022/07/30 05:56:14;;;;;;;11.40;9.98;;;16.80;99.90;;;;;;5014288;28;20052;-76
2022/07/30 05:58:40;;;;;;;14.30;10.85;;;17.00;99.90;;;;;;5065923;28;20041;-76
2022/07/30 06:01:05;;;;;;;11.82;10.40;;;17.00;99.90;;;;;;5016164;28;20052;-77
2022/07/30 06:03:31;;;;;;;12.35;10.68;;;17.10;99.90;;;;;;5032873;28;20030;-77
2022/07/30 06:05:56;;;;;;;14.82;10.85;;;17.20;99.90;;;;;;5031846;28;20080;-77
2022/07/30 06:08:22;;;;;;;10.77;9.68;;;17.20;99.90;;;;;;5032635;28;20049;-76
2022/07/30 06:10:47;;;;;;;12.73;9.68;;;17.30;99.90;;;;;;5032832;28;20049;-77
2022/07/30 06:13:13;;;;;;;12.30;10.50;;;17.40;99.90;;;;;;5032006;28;20048;-77
2022/07/30 06:15:38;;;;;;;12.45;10.23;;;17.40;99.90;;;;;;5031916;28;20055;-76
2022/07/30 06:18:04;;;;;;;12.15;10.50;;;17.50;99.90;;;;;;5065369;28;20079;-76
2022/07/30 06:20:30;;;;;;;14.70;10.52;;;17.60;99.90;;;;;;5015961;28;20041;-77
2022/07/30 06:22:55;;;;;;;11.73;9.82;;;17.50;99.90;;;;;;5014080;28;20483;-77
2022/07/30 06:25:21;;;;;;;11.80;9.50;;;17.50;99.90;;;;;;5031601;28;20038;-76
2022/07/30 06:27:46;;;;;;;15.18;10.30;;;17.60;99.90;;;;;;5032256;28;20448;-75
2022/07/30 06:30:12;;;;;;;15.20;9.85;;;17.70;99.90;;;;;;5032444;28;20107;-77
2022/07/30 06:32:37;;;;;;;12.45;9.50;;;17.80;99.90;;;;;;5032425;28;20064;-76
2022/07/30 06:35:04;;;;;;;12.48;9.77;;;17.90;99.90;;;;;;5030259;28;20046;-77
2022/07/30 06:37:30;;;;;;;13.73;10.18;;;17.90;99.90;;;;;;5030891;28;20112;-76
2022/07/30 06:39:55;;;;;;;14.88;9.85;;;17.90;99.90;;;;;;5031363;28;20116;-76
2022/07/30 06:42:21;;;;;;;14.52;10.00;;;18.00;99.90;;;;;;5031613;28;20041;-74
2022/07/30 06:44:46;;;;;;;12.43;9.50;;;18.10;99.90;;;;;;5031157;28;20550;-76
2022/07/30 06:47:12;;;;;;;13.32;9.65;;;18.20;99.90;;;;;;5031450;28;20041;-77
2022/07/30 06:49:38;;;;;;;11.15;9.50;;;18.40;99.90;;;;;;5031717;28;20124;-76
2022/07/30 06:52:04;;;;;;;14.02;9.75;;;18.50;99.90;;;;;;5031871;28;20077;-77
2022/07/30 06:54:30;;;;;;;11.77;9.40;;;18.70;99.90;;;;;;5030853;28;20034;-75
2022/07/30 06:56:56;;;;;;;14.98;8.85;;;18.80;99.90;;;;;;5031620;28;20045;-76
2022/07/30 06:59:21;;;;;;;14.93;8.25;;;18.90;99.90;;;;;;5031660;28;20041;-76
2022/07/30 07:01:48;;;;;;;11.10;8.35;;;19.00;99.90;;;;;;5031480;28;20067;-76
2022/07/30 07:04:13;;;;;;;12.43;8.13;;;19.20;99.90;;;;;;5030937;28;20085;-76
2022/07/30 07:06:39;;;;;;;12.20;7.97;;;19.20;99.90;;;;;;5031382;28;20042;-77
2022/07/30 07:09:04;;;;;;;15.30;8.93;;;19.40;99.90;;;;;;5031548;28;20045;-76
2022/07/30 07:11:30;;;;;;;13.23;8.38;;;19.40;99.90;;;;;;5064481;28;20434;-75
2022/07/30 07:13:56;;;;;;;11.32;8.23;;;19.40;99.90;;;;;;5030744;28;20049;-76
2022/07/30 07:16:24;;;;;;;14.90;9.05;;;19.60;99.90;;;;;;5031195;28;20418;-76
2022/07/30 07:18:51;;;;;;;12.88;8.90;;;19.60;99.90;;;;;;5014801;28;20125;-75
2022/07/30 07:21:17;;;;;;;13.68;8.82;;;19.60;99.90;;;;;;5031234;28;20039;-74
2022/07/30 07:23:42;;;;;;;12.80;8.30;;;19.70;99.90;;;;;;5014491;28;20113;-75
2022/07/30 07:26:08;;;;;;;12.18;8.27;;;19.70;99.90;;;;;;5031000;28;20128;-75
2022/07/30 07:28:34;;;;;;;14.77;8.80;;;19.90;99.90;;;;;;5031395;28;20554;-75
2022/07/30 07:31:00;;;;;;;13.43;9.02;;;19.90;99.90;;;;;;5063967;28;20073;-75
2022/07/30 07:33:26;;;;;;;12.95;8.93;;;20.00;99.90;;;;;;5031012;28;20081;-76
2022/07/30 07:35:53;;;;;;;13.38;8.73;;;20.10;99.90;;;;;;5030179;28;20076;-75
2022/07/30 07:38:19;;;;;;;14.20;9.00;;;20.20;99.90;;;;;;5030225;28;20105;-76
2022/07/30 07:40:45;;;;;;;14.35;8.63;;;20.30;99.90;;;;;;5037885;28;20565;-76
2022/07/30 07:43:11;;;;;;;14.43;8.23;;;20.40;99.90;;;;;;5084346;28;20037;-75
2022/07/30 07:45:38;;;;;;;13.55;7.88;;;20.40;99.90;;;;;;5040504;28;20042;-75
2022/07/30 07:48:03;;;;;;;14.25;7.78;;;20.50;99.90;;;;;;5063958;28;20194;-75
2022/07/30 07:50:29;;;;;;;15.95;8.55;;;20.50;99.90;;;;;;5030133;28;20087;-76
2022/07/30 07:52:55;;;;;;;12.88;7.70;;;20.50;99.90;;;;;;5029816;28;20116;-75
2022/07/30 07:55:20;;;;;;;12.93;7.35;;;20.40;99.90;;;;;;5029373;28;20045;-75
2022/07/30 07:57:46;;;;;;;12.98;7.70;;;20.50;99.90;;;;;;5029977;28;20487;-75
2022/07/30 08:00:13;;;;;;;12.65;6.75;;;20.60;99.90;;;;;;5030268;28;20048;-74
2022/07/30 08:02:39;;;;;;;12.52;6.97;;;20.90;99.90;;;;;;5030474;28;20040;-74
2022/07/30 08:05:06;;;;;;;13.18;7.47;;;20.80;99.90;;;;;;5029700;28;20041;-78
2022/07/30 08:07:32;;;;;;;11.80;6.82;;;20.70;99.90;;;;;;5030308;28;20133;-75
2022/07/30 08:09:58;;;;;;;14.30;6.43;;;20.70;99.90;;;;;;5030691;28;20080;-74
2022/07/30 08:12:24;;;;;;;9.80;5.90;;;20.90;99.90;;;;;;5030307;28;20121;-74
2022/07/30 08:14:49;;;;;;;11.45;6.25;;;21.00;99.90;;;;;;5062583;28;20041;-75
2022/07/30 08:17:15;;;;;;;10.63;6.32;;;21.30;99.90;;;;;;5063428;28;20386;-74
2022/07/30 08:19:40;;;;;;;8.00;5.65;;;21.50;99.90;;;;;;5030005;28;20037;-75
2022/07/30 08:22:06;;;;;;;11.82;5.78;;;21.50;99.90;;;;;;5063150;28;20041;-74
2022/07/30 08:24:32;;;;;;;11.43;5.10;;;21.30;99.90;;;;;;5029345;28;20038;-74
2022/07/30 08:26:57;;;;;;;11.48;5.80;;;21.00;99.90;;;;;;5030096;28;20073;-74
2022/07/30 08:29:23;;;;;;;9.45;4.97;;;20.80;99.90;;;;;;5030519;28;20047;-74
2022/07/30 08:31:49;;;;;;;10.40;5.60;;;20.90;99.90;;;;;;5029396;28;20086;-76
2022/07/30 08:34:14;;;;;;;9.05;4.90;;;21.20;99.90;;;;;;5029002;28;20045;-74
2022/07/30 08:36:40;;;;;;;8.02;4.13;;;21.40;99.90;;;;;;5030627;28;20044;-74
2022/07/30 08:39:06;;;;;;;8.80;4.20;;;21.40;99.90;;;;;;5030690;28;20091;-74
2022/07/30 08:41:32;;;;;;;8.30;4.63;;;21.50;99.90;;;;;;5029295;28;20500;-74
2022/07/30 08:43:59;;;;;;;11.23;4.70;;;21.70;99.90;;;;;;5028869;28;20087;-74
2022/07/30 08:46:29;;;;;;;11.32;4.18;;;21.80;99.90;;;;;;5063042;28;20048;-76
2022/07/30 08:48:55;;;;;;;8.50;4.28;;;22.10;99.90;;;;;;5029583;28;20045;-74
2022/07/30 08:51:22;;;;;;;8.43;3.83;;;21.90;99.90;;;;;;5033205;28;20045;-73
2022/07/30 08:53:48;;;;;;;8.98;4.45;;;21.90;99.90;;;;;;5033301;28;20047;-74
2022/07/30 08:56:14;;;;;;;7.65;4.25;;;22.00;99.90;;;;;;5033860;28;20403;-75
2022/07/30 08:58:41;;;;;;;10.02;4.35;;;21.90;99.90;;;;;;5033694;28;20049;-74
2022/07/30 09:01:06;;;;;;;9.27;3.95;;;21.60;99.90;;;;;;5034193;28;20033;-75
2022/07/30 09:03:33;;;;;;;5.82;3.85;;;21.70;99.90;;;;;;5033651;28;20036;-74
2022/07/30 09:05:59;;;;;;;8.40;3.95;;;21.60;99.90;;;;;;5016887;28;20473;-74
2022/07/30 09:08:25;;;;;;;9.52;4.07;;;21.80;99.90;;;;;;5032702;28;20128;-74
2022/07/30 09:10:51;;;;;;;6.10;3.40;;;21.90;99.90;;;;;;5033831;28;20140;-73
2022/07/30 09:13:38;;;;;;;10.20;4.18;;;21.90;99.90;;;;;;5033477;28;20052;-74
2022/07/30 09:16:05;;;;;;;8.48;3.80;;;22.00;99.90;;;;;;5033232;28;20053;-74
2022/07/30 09:18:37;;;;;;;8.70;3.80;;;22.00;99.90;;;;;;5033568;28;20522;-74
2022/07/30 09:21:18;;;;;;;7.40;3.58;;;22.30;99.90;;;;;;5033621;28;20037;-76
2022/07/30 09:24:04;;;;;;;7.85;3.40;;;22.20;99.90;;;;;;5032974;28;20407;-74
2022/07/30 09:26:31;;;;;;;6.90;3.28;;;22.10;99.90;;;;;;5033407;28;20048;-74
2022/07/30 09:29:17;;;;;;;9.13;3.50;;;21.90;99.90;;;;;;5033400;28;20041;-74
2022/07/30 09:32:00;;;;;;;7.18;3.72;;;22.10;99.90;;;;;;5033377;28;20077;-74
2022/07/30 09:34:32;;;;;;;10.90;4.20;;;22.30;99.90;;;;;;5032973;28;20418;-76
2022/07/30 09:37:00;;;;;;;12.55;3.88;;;22.40;99.90;;;;;;5033230;28;20400;-74
2022/07/30 09:39:37;;;;;;;9.30;3.90;;;22.40;99.90;;;;;;5049450;28;20474;-74
2022/07/30 09:42:15;;;;;;;10.82;3.70;;;22.50;99.90;;;;;;5034306;28;20496;-75
2022/07/30 09:44:40;;;;;;;8.40;3.78;;;22.40;99.90;;;;;;5015762;28;20041;-74
2022/07/30 09:47:06;;;;;;;11.85;3.80;;;22.40;99.90;;;;;;5032598;28;20044;-75
2022/07/30 09:49:32;;;;;;;6.50;3.10;;;22.20;99.90;;;;;;5033052;28;20521;-74
2022/07/30 09:51:57;;;;;;;7.85;3.58;;;22.40;99.90;;;;;;5032718;28;20038;-74
2022/07/30 09:54:44;;;;;;;9.55;3.80;;;22.50;99.90;;;;;;5065372;28;20037;-74
2022/07/30 09:57:09;;;;;;;7.80;3.40;;;22.60;99.90;;;;;;5031578;28;20120;-74
2022/07/30 09:59:35;;;;;;;6.30;3.60;;;22.80;99.90;;;;;;5032512;28;20120;-75
2022/07/30 10:02:01;;;;;;;10.05;4.15;;;23.00;99.90;;;;;;5015117;28;20034;-75
2022/07/30 10:04:29;;;;;;;6.63;3.20;;;23.10;99.90;;;;;;5030729;28;20048;-75
2022/07/30 10:06:56;;;;;;;8.77;3.15;;;23.20;99.90;;;;;;5032231;28;20041;-75
2022/07/30 10:09:35;;;;;;;7.35;3.03;;;23.20;99.90;;;;;;5032144;28;20042;-74
2022/07/30 10:12:03;;;;;;;7.25;3.30;;;23.30;99.90;;;;;;5032300;28;20420;-75
2022/07/30 10:14:34;;;;;;;9.52;3.47;;;23.40;99.90;;;;;;5064287;28;20042;-75
2022/07/30 10:17:00;;;;;;;5.60;3.00;;;23.20;99.90;;;;;;5066149;28;20415;-77
2022/07/30 10:19:26;;;;;;;9.93;3.17;;;23.20;99.90;;;;;;5032341;28;20471;-73
2022/07/30 10:21:55;;;;;;;3.97;2.35;;;23.20;99.90;;;;;;5015018;28;20435;-74
2022/07/30 10:24:21;;;;;;;5.32;2.67;;;23.50;99.90;;;;;;5030617;28;20048;-75
2022/07/30 10:26:49;;;;;;;7.00;2.97;;;23.90;99.90;;;;;;5032267;28;20053;-76
2022/07/30 10:29:18;;;;;;;7.93;3.05;;;23.90;99.90;;;;;;5032291;28;20045;-74
2022/07/30 10:31:45;;;;;;;6.47;2.67;;;23.70;99.90;;;;;;5032287;28;20102;-77
2022/07/30 10:34:18;;;;;;;7.43;2.95;;;23.50;99.90;;;;;;5064615;28;20037;-74
2022/07/30 10:36:54;;;;;;;6.40;2.70;;;23.50;99.90;;;;;;5028327;28;20049;-75
2022/07/30 10:39:25;;;;;;;6.68;2.67;;;23.50;99.90;;;;;;5031440;28;20037;-74
2022/07/30 10:42:34;;;;;;;6.93;2.60;;;23.60;99.90;;;;;;5031767;28;20052;-75
2022/07/30 10:45:21;;;;;;;5.75;2.80;;;23.80;99.90;;;;;;4994520;28;20129;-75
2022/07/30 10:47:48;;;;;;;17.40;3.72;;;23.70;99.90;;;;;;5031922;28;20068;-74
2022/07/30 10:50:17;;;;;;;8.93;2.90;;;23.60;99.90;;;;;;5031795;28;20103;-75
2022/07/30 10:52:54;;;;;;;9.07;3.35;;;23.50;99.90;;;;;;5033081;28;20120;-75
2022/07/30 10:55:32;;;;;;;7.30;3.15;;;23.40;99.90;;;;;;5031374;28;20472;-75
2022/07/30 10:58:07;;;;;;;7.32;3.10;;;23.50;99.90;;;;;;5031720;28;20041;-74
2022/07/30 11:00:43;;;;;;;6.93;3.30;;;23.80;99.90;;;;;;5031971;28;20518;-76
2022/07/30 11:03:13;;;;;;;8.90;3.10;;;24.00;99.90;;;;;;5031994;28;20083;-74
2022/07/30 11:05:39;;;;;;;5.85;2.72;;;23.90;99.90;;;;;;5014479;28;20041;-75
2022/07/30 11:08:35;;;;;;;4.53;2.40;;;24.10;99.90;;;;;;5031433;28;20045;-75
2022/07/30 11:11:01;;;;;;;6.95;2.35;;;24.60;99.90;;;;;;5031080;28;20103;-75
2022/07/30 11:13:53;;;;;;;6.20;2.33;;;24.70;99.90;;;;;;5031051;28;20037;-75
2022/07/30 11:16:21;;;;;;;4.60;2.50;;;24.90;99.90;;;;;;5031750;28;20432;-76
2022/07/30 11:19:16;;;;;;;6.53;2.50;;;25.10;99.90;;;;;;5031109;28;20049;-75
2022/07/30 11:21:43;;;;;;;4.88;2.20;;;25.20;99.30;;;;;;5031530;28;20474;-75
2022/07/30 11:24:41;;;;;;;6.05;2.50;;;25.30;99.70;;;;;;5030436;28;20049;-75
2022/07/30 11:27:07;;;;;;;4.97;2.20;;;25.40;98.80;;;;;;5031715;28;20052;-75
2022/07/30 11:29:33;;;;;;;4.15;2.28;;;25.70;99.10;;;;;;5030763;28;20033;-75
2022/07/30 11:32:25;;;;;;;5.45;2.28;;;25.70;98.80;;;;;;5030034;28;20045;-75
2022/07/30 11:34:51;;;;;;;4.75;2.42;;;25.70;98.30;;;;;;5060200;28;20133;-75
2022/07/30 11:37:17;;;;;;;4.30;2.10;;;25.50;98.00;;;;;;5027922;28;20044;-75
2022/07/30 11:39:52;;;;;;;6.20;2.10;;;25.50;97.70;;;;;;5028503;28;20033;-75
2022/07/30 11:42:37;;;;;;;5.47;2.03;;;25.60;97.60;;;;;;5028054;28;20041;-74
2022/07/30 11:45:15;;;;;;;5.43;2.00;;;25.80;96.30;;;;;;5028160;28;20042;-75
2022/07/30 11:47:45;;;;;;;3.80;1.50;;;26.20;96.00;;;;;;5028871;28;20064;-76
2022/07/30 11:50:23;;;;;;;4.47;1.70;;;26.60;95.90;;;;;;5028941;28;20392;-77
2022/07/30 11:52:53;;;;;;;4.85;1.77;;;26.80;95.30;;;;;;5028549;28;20047;-76
2022/07/30 11:55:31;;;;;;;4.63;1.83;;;26.90;94.60;;;;;;5028445;28;20095;-77
2022/07/30 11:58:00;;;;;;;6.63;1.88;;;26.70;94.40;;;;;;5030257;28;20060;-76
2022/07/30 12:00:34;;;;;;;4.57;2.20;;;26.40;95.10;;;;;;5030557;28;20054;-76
2022/07/30 12:03:10;;;;;;;3.60;1.75;;;26.40;95.30;;;;;;5030582;28;20048;-76
2022/07/30 12:05:35;;;;;;;3.97;1.98;;;26.40;94.00;;;;;;5030081;28;20478;-75
2022/07/30 12:08:01;;;;;;;6.18;2.33;;;26.20;95.50;;;;;;5030473;28;20124;-76
2022/07/30 12:10:27;;;;;;;4.32;2.00;;;26.10;95.50;;;;;;5030298;28;20557;-77
2022/07/30 12:13:05;;;;;;;4.95;1.83;;;25.70;95.10;;;;;;5030154;28;20076;-76
2022/07/30 12:15:33;;;;;;;7.07;2.45;;;25.60;95.00;;;;;;5029124;28;20080;-76
2022/07/30 12:18:00;;;;;;;4.88;2.35;;;25.40;94.90;;;;;;5030374;28;20124;-77
2022/07/30 12:20:26;;;;;;;6.07;1.80;;;25.70;94.70;;;;;;5031387;28;20084;-76
2022/07/30 12:22:52;;;;;;;4.47;1.90;;;25.90;94.90;;;;;;5030155;28;20133;-78
2022/07/30 12:25:18;;;;;;;5.28;2.17;;;26.40;94.40;;;;;;5029400;28;20144;-77
2022/07/30 12:27:48;;;;;;;5.05;1.85;;;26.70;93.90;;;;;;5030061;28;20103;-76
2022/07/30 12:30:16;;;;;;;4.60;1.75;;;26.90;93.40;;;;;;5029995;28;20122;-77
2022/07/30 12:32:42;;;;;;;3.38;1.77;;;27.10;92.90;;;;;;5030730;28;20063;-78
2022/07/30 12:35:09;;;;;;;5.40;1.85;;;27.00;91.90;;;;;;5013088;28;20055;-77
2022/07/30 12:37:34;;;;;;;3.65;1.80;;;26.80;91.50;;;;;;5062994;28;20053;-76
2022/07/30 12:40:11;;;;;;;6.07;1.98;;;26.80;91.90;;;;;;5063566;28;20037;-77
2022/07/30 12:42:49;;;;;;;4.65;1.92;;;26.90;92.40;;;;;;5031185;28;20446;-80
2022/07/30 12:45:29;;;;;;;6.28;2.10;;;26.60;92.40;;;;;;5029689;28;20052;-80
2022/07/30 12:47:56;;;;;;;4.60;1.80;;;25.90;92.10;;;;;;5028656;28;20052;-75
2022/07/30 12:50:22;;;;;;;3.65;1.90;;;25.80;92.20;;;;;;5028649;28;20506;-76
2022/07/30 12:52:53;;;;;;;5.35;1.88;;;25.40;92.70;;;;;;5027450;28;20037;-77